Time;durP1;ratioP1;P1;durP2;ratioP2;P2;SDS_P1;SDS_P2;PMS_P1;PMS_P2;Temp;Humidity;BMP_temperature;BMP_pressure;BME280_temperature;BME280_humidity;BME280_pressure;Samples;Min_cycle;Max_cycle;Signal;HPM_P1;HPM_P2
2023/05/04 00:01:24;;;;;;;;;;;;;;;19.75;61.65;101339.75;7411176;19;1352;-50
2023/05/04 00:03:53;;;;;;;;;;;;;;;19.70;61.69;101342.78;7410464;19;1553;-50
2023/05/04 00:06:21;;;;;;;;;;;;;;;19.67;61.75;101345.69;7408750;19;1846;-49
2023/05/04 00:08:50;;;;;;;;;;;;;;;19.59;61.72;101342.78;7407497;19;1568;-50
2023/05/04 00:11:18;;;;;;;;;;;;;;;19.61;61.89;101335.47;7410228;19;1191;-50
2023/05/04 00:13:49;;;;;;;;;;;;;;;19.59;61.70;101337.44;7409990;19;1726;-50
2023/05/04 00:16:17;;;;;;;;;;;;;;;19.59;61.64;101321.34;7409982;19;1266;-50
2023/05/04 00:18:46;;;;;;;;;;;;;;;19.55;61.77;101309.16;7409283;19;1508;-49
2023/05/04 00:21:14;;;;;;;;;;;;;;;19.59;61.65;101316.81;7409184;19;1203;-50
2023/05/04 00:23:42;;;;;;;;;;;;;;;19.59;61.55;101305.22;7408288;19;1456;-50
2023/05/04 00:26:10;;;;;;;;;;;;;;;19.59;61.40;101303.41;7408287;19;1949;-50
2023/05/04 00:28:39;;;;;;;;;;;;;;;19.55;61.46;101314.50;7409791;19;1028;-50
2023/05/04 00:31:13;;;;;;;;;;;;;;;19.52;62.15;101307.59;7407332;19;1254;-52
2023/05/04 00:33:42;;;;;;;;;;;;;;;19.57;61.82;101317.91;7407807;19;1959;-51
2023/05/04 00:36:12;;;;;;;;;;;;;;;19.53;61.85;101297.69;7408350;19;1590;-50
2023/05/04 00:38:48;;;;;;;;;;;;;;;19.50;61.70;101308.66;7409121;19;1369;-49
2023/05/04 00:41:17;;;;;;;;;;;;;;;19.59;61.81;101299.88;7409509;19;1481;-51
2023/05/04 00:43:45;;;;;;;;;;;;;;;19.60;61.41;101305.13;7409200;19;1678;-52
2023/05/04 00:46:16;;;;;;;;;;;;;;;19.56;61.68;101302.81;7406848;19;1862;-53
2023/05/04 00:48:44;;;;;;;;;;;;;;;19.54;61.52;101291.38;7408698;19;1480;-52
2023/05/04 00:51:13;;;;;;;;;;;;;;;19.58;61.32;101271.34;7405246;19;1211;-50
2023/05/04 00:53:41;;;;;;;;;;;;;;;19.58;61.42;101269.50;7401104;19;1278;-50
2023/05/04 00:56:10;;;;;;;;;;;;;;;19.50;61.49;101245.16;7401344;19;1387;-52
2023/05/04 00:58:39;;;;;;;;;;;;;;;19.46;61.52;101241.88;7402049;19;1622;-50
2023/05/04 01:01:07;;;;;;;;;;;;;;;19.46;61.76;101246.41;7401811;19;1839;-51
2023/05/04 01:03:38;;;;;;;;;;;;;;;19.45;61.76;101244.69;7403019;19;1123;-52
2023/05/04 01:06:14;;;;;;;;;;;;;;;19.53;61.71;101252.94;7400265;19;1856;-50
2023/05/04 01:08:43;;;;;;;;;;;;;;;19.48;61.38;101250.66;7398421;19;1548;-49
2023/05/04 01:11:12;;;;;;;;;;;;;;;19.53;61.50;101233.31;7400260;19;1253;-51
2023/05/04 01:13:41;;;;;;;;;;;;;;;19.42;61.50;101240.44;7399780;19;1251;-51
2023/05/04 01:16:10;;;;;;;;;;;;;;;19.55;61.31;101242.09;7400635;19;1148;-51
2023/05/04 01:18:40;;;;;;;;;;;;;;;19.41;61.63;101240.53;7399601;19;1271;-50
2023/05/04 01:21:09;;;;;;;;;;;;;;;19.35;61.78;101236.53;7400161;19;1488;-50
2023/05/04 01:23:40;;;;;;;;;;;;;;;19.32;61.90;101228.75;7399741;19;1388;-50
2023/05/04 01:26:10;;;;;;;;;;;;;;;19.38;61.82;101232.78;7400039;19;1929;-51
2023/05/04 01:28:41;;;;;;;;;;;;;;;19.46;61.68;101225.78;7401124;19;1246;-53
2023/05/04 01:31:11;;;;;;;;;;;;;;;19.43;61.55;101212.59;7401299;19;1099;-50
2023/05/04 01:33:39;;;;;;;;;;;;;;;19.40;61.47;101196.78;7399965;19;1936;-50
2023/05/04 01:36:08;;;;;;;;;;;;;;;19.43;61.69;101199.19;7399854;19;1433;-51
2023/05/04 01:38:36;;;;;;;;;;;;;;;19.45;61.75;101193.72;7399020;19;1211;-50
2023/05/04 01:41:07;;;;;;;;;;;;;;;19.47;61.63;101202.47;7400595;19;1492;-51
2023/05/04 01:43:35;;;;;;;;;;;;;;;19.29;61.97;101191.47;7399920;19;1556;-49
2023/05/04 01:46:04;;;;;;;;;;;;;;;19.50;62.05;101188.84;7400068;19;1499;-50
2023/05/04 01:48:32;;;;;;;;;;;;;;;20.15;60.31;101200.31;7399337;19;1549;-51
2023/05/04 01:51:00;;;;;;;;;;;;;;;20.82;58.88;101192.72;7400067;19;1020;-51
2023/05/04 01:53:29;;;;;;;;;;;;;;;20.97;58.38;101174.34;7399226;19;1478;-51
2023/05/04 01:55:57;;;;;;;;;;;;;;;20.35;63.46;101187.00;7399592;19;1489;-51
2023/05/04 01:58:28;;;;;;;;;;;;;;;20.31;61.28;101194.47;7397901;19;1651;-50
2023/05/04 02:00:58;;;;;;;;;;;;;;;20.55;60.26;101179.88;7399069;19;1630;-50
2023/05/04 02:03:26;;;;;;;;;;;;;;;20.66;59.99;101182.50;7398009;19;1584;-50
2023/05/04 02:05:54;;;;;;;;;;;;;;;20.88;59.60;101169.81;7399077;19;1230;-52
2023/05/04 02:08:23;;;;;;;;;;;;;;;21.18;58.85;101193.94;7395407;19;1867;-52
2023/05/04 02:10:51;;;;;;;;;;;;;;;21.34;58.38;101176.41;7398879;19;1567;-52
2023/05/04 02:13:20;;;;;;;;;;;;;;;21.35;58.27;101157.44;7398333;19;1512;-50
2023/05/04 02:15:51;;;;;;;;;;;;;;;21.34;58.40;101158.41;7398858;19;1551;-50
2023/05/04 02:18:20;;;;;;;;;;;;;;;21.29;58.21;101143.69;7398034;19;1264;-50
2023/05/04 02:20:48;;;;;;;;;;;;;;;21.29;58.58;101149.94;7399279;19;1547;-50
2023/05/04 02:23:16;;;;;;;;;;;;;;;21.30;58.47;101159.69;7398737;19;1114;-50
2023/05/04 02:25:45;;;;;;;;;;;;;;;21.34;58.28;101154.88;7398836;19;1919;-50
2023/05/04 02:28:13;;;;;;;;;;;;;;;21.34;58.21;101128.81;7395612;19;1858;-50
2023/05/04 02:30:42;;;;;;;;;;;;;;;21.34;58.38;101150.34;7397411;19;1613;-50
2023/05/04 02:33:13;;;;;;;;;;;;;;;21.34;58.53;101155.72;7395079;19;1515;-50
2023/05/04 02:35:42;;;;;;;;;;;;;;;21.41;58.33;101159.56;7396756;19;1580;-50
2023/05/04 02:38:10;;;;;;;;;;;;;;;21.43;58.30;101154.91;7397318;19;1622;-51
2023/05/04 02:40:38;;;;;;;;;;;;;;;21.44;58.17;101155.75;7397943;19;1568;-50
2023/05/04 02:43:06;;;;;;;;;;;;;;;21.39;58.36;101153.47;7397930;19;1535;-50
2023/05/04 02:45:35;;;;;;;;;;;;;;;21.47;58.19;101160.00;7397189;19;1404;-50
2023/05/04 02:48:03;;;;;;;;;;;;;;;21.44;58.44;101171.91;7396008;19;1874;-50
2023/05/04 02:50:34;;;;;;;;;;;;;;;21.48;58.25;101177.84;7397715;19;1544;-50
2023/05/04 02:53:02;;;;;;;;;;;;;;;21.47;58.40;101165.38;7397891;19;1279;-51
2023/05/04 02:55:31;;;;;;;;;;;;;;;21.51;58.25;101166.81;7398167;19;1074;-50
2023/05/04 02:58:00;;;;;;;;;;;;;;;21.56;58.19;101172.59;7396011;19;1857;-50
2023/05/04 03:00:28;;;;;;;;;;;;;;;21.55;58.04;101160.16;7397182;19;1634;-50
2023/05/04 03:02:56;;;;;;;;;;;;;;;21.51;58.17;101167.66;7397223;19;1163;-51
2023/05/04 03:05:24;;;;;;;;;;;;;;;21.56;58.17;101165.38;7395539;19;1610;-53
2023/05/04 03:07:55;;;;;;;;;;;;;;;21.47;58.79;101170.75;7394379;19;1853;-50
2023/05/04 03:10:24;;;;;;;;;;;;;;;21.40;59.26;101181.22;7396528;19;1500;-51
2023/05/04 03:12:52;;;;;;;;;;;;;;;21.32;59.82;101176.53;7397098;19;1300;-51
2023/05/04 03:15:20;;;;;;;;;;;;;;;21.32;59.67;101167.63;7394015;19;1473;-50
2023/05/04 03:17:48;;;;;;;;;;;;;;;21.32;59.70;101165.78;7396038;19;1611;-51
2023/05/04 03:20:17;;;;;;;;;;;;;;;21.28;59.78;101183.19;7394827;19;1532;-53
2023/05/04 03:22:45;;;;;;;;;;;;;;;21.24;60.14;101195.22;7394765;19;1556;-51
2023/05/04 03:25:16;;;;;;;;;;;;;;;21.17;60.69;101180.63;7396037;19;1219;-51
2023/05/04 03:27:44;;;;;;;;;;;;;;;21.10;60.75;101182.19;6877517;19;9999621;-51
2023/05/04 03:30:14;;;;;;;;;;;;;;;21.09;60.83;101194.78;7388734;19;1444;-51
2023/05/04 03:32:42;;;;;;;;;;;;;;;21.15;60.64;101199.59;7389421;19;1614;-51
2023/05/04 03:35:11;;;;;;;;;;;;;;;21.16;60.78;101217.41;7390558;19;1135;-52
2023/05/04 03:37:39;;;;;;;;;;;;;;;21.20;60.68;101224.22;7389624;19;1682;-53
2023/05/04 03:40:08;;;;;;;;;;;;;;;21.16;60.67;101224.66;7389378;19;1405;-51
2023/05/04 03:42:39;;;;;;;;;;;;;;;21.12;61.06;101242.06;7389955;19;1500;-51
2023/05/04 03:45:08;;;;;;;;;;;;;;;21.11;60.87;101230.47;7390336;19;1483;-50
2023/05/04 03:47:37;;;;;;;;;;;;;;;21.12;61.15;101225.91;7390581;19;1847;-51
2023/05/04 03:50:05;;;;;;;;;;;;;;;21.09;60.80;101228.88;7391604;19;1516;-49
2023/05/04 03:52:33;;;;;;;;;;;;;;;21.01;61.23;101240.34;7394466;19;1315;-52
2023/05/04 03:55:02;;;;;;;;;;;;;;;21.07;61.06;101239.78;7395306;19;1293;-51
2023/05/04 03:57:30;;;;;;;;;;;;;;;21.22;60.60;101243.75;7395368;19;1405;-50
2023/05/04 04:00:01;;;;;;;;;;;;;;;21.13;60.81;101238.34;7391718;19;1849;-50
2023/05/04 04:02:29;;;;;;;;;;;;;;;20.90;60.98;101248.50;7390067;19;1331;-50
2023/05/04 04:04:58;;;;;;;;;;;;;;;20.70;62.26;101248.41;7390776;19;1263;-50
2023/05/04 04:07:26;;;;;;;;;;;;;;;20.53;62.47;101252.56;7392265;19;1876;-50
2023/05/04 04:09:54;;;;;;;;;;;;;;;20.62;62.16;101262.53;7391811;19;1633;-50
2023/05/04 04:12:23;;;;;;;;;;;;;;;20.33;62.81;101261.47;7395783;19;1111;-55
2023/05/04 04:14:51;;;;;;;;;;;;;;;20.27;63.13;101282.53;7393967;19;1621;-51
2023/05/04 04:17:22;;;;;;;;;;;;;;;20.24;63.01;101277.41;7391727;19;1674;-51
2023/05/04 04:19:50;;;;;;;;;;;;;;;20.26;62.61;101267.38;7393583;19;1203;-51
2023/05/04 04:22:19;;;;;;;;;;;;;;;20.32;60.61;101286.66;7389863;19;1567;-51
2023/05/04 04:24:47;;;;;;;;;;;;;;;20.24;60.15;101277.41;7389560;19;1392;-51
2023/05/04 04:27:15;;;;;;;;;;;;;;;20.21;61.40;101274.13;7398284;19;1857;-50
2023/05/04 04:29:44;;;;;;;;;;;;;;;19.97;61.19;101274.38;7401536;19;1535;-51
2023/05/04 04:32:12;;;;;;;;;;;;;;;19.87;61.78;101268.94;7398254;19;1512;-50
2023/05/04 04:34:43;;;;;;;;;;;;;;;20.04;60.08;101273.75;7401641;19;1538;-50
2023/05/04 04:37:11;;;;;;;;;;;;;;;20.01;59.83;101273.13;7388625;19;2507;-50
2023/05/04 04:39:39;;;;;;;;;;;;;;;19.89;59.89;101263.44;7390441;19;1546;-50
2023/05/04 04:42:08;;;;;;;;;;;;;;;20.03;60.29;101284.59;7390995;19;1707;-50
2023/05/04 04:44:36;;;;;;;;;;;;;;;20.15;60.33;101283.56;7389136;19;1642;-50
2023/05/04 04:47:05;;;;;;;;;;;;;;;20.15;60.53;101278.19;7391175;19;1405;-50
2023/05/04 04:49:33;;;;;;;;;;;;;;;20.17;60.60;101278.91;7391903;19;1376;-50
2023/05/04 04:52:05;;;;;;;;;;;;;;;20.12;60.42;101275.78;7392488;19;1518;-50
2023/05/04 04:54:36;;;;;;;;;;;;;;;20.11;60.59;101279.44;7393881;19;1544;-50
2023/05/04 04:57:04;;;;;;;;;;;;;;;20.17;60.48;101273.53;7393017;19;1450;-50
2023/05/04 04:59:33;;;;;;;;;;;;;;;20.10;60.64;101266.16;7389413;19;1628;-50
2023/05/04 05:02:02;;;;;;;;;;;;;;;19.89;61.46;101264.28;7390614;19;1415;-50
2023/05/04 05:04:31;;;;;;;;;;;;;;;19.88;61.58;101278.69;7390354;19;1429;-50
2023/05/04 05:06:59;;;;;;;;;;;;;;;19.91;61.40;101278.44;7389187;19;1476;-50
2023/05/04 05:09:27;;;;;;;;;;;;;;;19.89;62.01;101285.75;7386580;19;1895;-50
2023/05/04 05:11:58;;;;;;;;;;;;;;;20.07;61.75;101261.88;7389102;19;1571;-50
2023/05/04 05:14:26;;;;;;;;;;;;;;;20.14;61.35;101257.69;7388653;19;1497;-54
2023/05/04 05:16:55;;;;;;;;;;;;;;;20.27;60.72;101239.56;7389088;19;1483;-51
2023/05/04 05:19:23;;;;;;;;;;;;;;;20.16;60.89;101255.72;7389950;19;1550;-50
2023/05/04 05:21:51;;;;;;;;;;;;;;;20.30;60.67;101272.50;7388307;19;1555;-50
2023/05/04 05:24:20;;;;;;;;;;;;;;;20.25;60.71;101281.81;7389766;19;1416;-50
2023/05/04 05:26:48;;;;;;;;;;;;;;;20.17;61.06;101270.84;7388232;19;1465;-50
2023/05/04 05:29:19;;;;;;;;;;;;;;;20.18;61.06;101274.41;7386136;19;1844;-50
2023/05/04 05:31:47;;;;;;;;;;;;;;;20.04;61.45;101273.75;7384154;19;1524;-50
2023/05/04 05:34:16;;;;;;;;;;;;;;;20.02;61.70;101269.50;7390127;19;1637;-50
2023/05/04 05:36:44;;;;;;;;;;;;;;;19.85;62.15;101269.06;7395499;19;1047;-50
2023/05/04 05:39:13;;;;;;;;;;;;;;;19.75;62.41;101280.69;7395772;19;1040;-49
2023/05/04 05:41:41;;;;;;;;;;;;;;;19.70;62.13;101286.44;7393959;19;1325;-50
2023/05/04 05:44:09;;;;;;;;;;;;;;;19.81;62.11;101293.59;7396820;19;1654;-50
2023/05/04 05:46:40;;;;;;;;;;;;;;;20.01;61.99;101278.50;7397549;19;1226;-50
2023/05/04 05:49:08;;;;;;;;;;;;;;;20.11;61.37;101274.06;7395868;19;1865;-49
2023/05/04 05:51:37;;;;;;;;;;;;;;;20.16;61.25;101282.59;7398172;19;1607;-50
2023/05/04 05:54:05;;;;;;;;;;;;;;;19.93;61.88;101291.72;7398071;19;2000;-52
2023/05/04 05:56:33;;;;;;;;;;;;;;;20.04;61.42;101289.84;7398435;19;1480;-52
2023/05/04 05:59:02;;;;;;;;;;;;;;;20.34;60.59;101263.19;7397153;19;1599;-52
2023/05/04 06:01:30;;;;;;;;;;;;;;;20.27;60.57;101277.16;7397647;19;1495;-52
2023/05/04 06:04:01;;;;;;;;;;;;;;;20.24;61.03;101308.78;7395427;19;1541;-53
2023/05/04 06:06:30;;;;;;;;;;;;;;;20.18;61.00;101306.63;7398440;19;1266;-53
2023/05/04 06:08:59;;;;;;;;;;;;;;;19.81;61.94;101305.19;7395469;19;1907;-52
2023/05/04 06:11:27;;;;;;;;;;;;;;;19.83;62.06;101305.91;7397582;19;1270;-52
2023/05/04 06:13:56;;;;;;;;;;;;;;;20.06;61.68;101304.00;7396997;19;1557;-50
2023/05/04 06:16:24;;;;;;;;;;;;;;;20.16;61.28;101290.63;7398156;19;1618;-50
2023/05/04 06:18:52;;;;;;;;;;;;;;;19.95;61.74;101292.44;7397735;19;1565;-50
2023/05/04 06:21:23;;;;;;;;;;;;;;;20.01;61.70;101287.41;7397194;19;1622;-50
2023/05/04 06:23:51;;;;;;;;;;;;;;;20.17;61.23;101291.47;7397283;19;1626;-49
2023/05/04 06:26:21;;;;;;;;;;;;;;;20.27;60.85;101274.47;7397905;19;1301;-50
2023/05/04 06:28:49;;;;;;;;;;;;;;;20.26;61.03;101288.03;7397149;19;1871;-50
2023/05/04 06:31:18;;;;;;;;;;;;;;;20.08;61.38;101273.50;7399048;19;1158;-50
2023/05/04 06:33:46;;;;;;;;;;;;;;;19.82;62.06;101280.06;7398327;19;1884;-50
2023/05/04 06:36:15;;;;;;;;;;;;;;;19.83;62.09;101275.53;7397118;19;1489;-50
2023/05/04 06:38:46;;;;;;;;;;;;;;;20.10;61.42;101276.91;7397037;19;1293;-50
2023/05/04 06:41:14;;;;;;;;;;;;;;;20.16;61.17;101258.41;7397468;19;1204;-50
2023/05/04 06:43:43;;;;;;;;;;;;;;;19.96;61.68;101270.00;7397662;19;1601;-50
2023/05/04 06:46:11;;;;;;;;;;;;;;;20.01;61.52;101275.81;7396919;19;1674;-50
2023/05/04 06:48:40;;;;;;;;;;;;;;;20.05;61.17;101286.19;7395657;19;1872;-50
2023/05/04 06:51:09;;;;;;;;;;;;;;;20.17;61.06;101281.59;7394486;19;1615;-50
2023/05/04 06:53:37;;;;;;;;;;;;;;;20.22;60.83;101297.34;7396456;19;1250;-49
2023/05/04 06:56:08;;;;;;;;;;;;;;;20.05;61.13;101291.56;7397219;19;1508;-52
2023/05/04 06:58:36;;;;;;;;;;;;;;;19.89;61.94;101284.91;7396829;19;1629;-52
2023/05/04 07:01:07;;;;;;;;;;;;;;;20.00;61.85;101288.41;7396172;19;1606;-52
2023/05/04 07:03:36;;;;;;;;;;;;;;;20.11;60.88;101284.78;7396752;19;1279;-50
2023/05/04 07:06:05;;;;;;;;;;;;;;;20.18;60.53;101283.31;7394980;19;1869;-50
2023/05/04 07:08:33;;;;;;;;;;;;;;;20.17;60.82;101278.91;7394440;19;1844;-50
2023/05/04 07:11:01;;;;;;;;;;;;;;;20.20;60.93;101278.66;7395399;19;1294;-50
2023/05/04 07:13:32;;;;;;;;;;;;;;;20.03;61.32;101276.53;7395797;19;1942;-50
2023/05/04 07:16:00;;;;;;;;;;;;;;;19.82;61.90;101285.44;7395396;19;1537;-50
2023/05/04 07:18:29;;;;;;;;;;;;;;;19.74;62.08;101287.91;7396107;19;1714;-50
2023/05/04 07:20:57;;;;;;;;;;;;;;;19.75;62.14;101297.66;7395454;19;1548;-50
2023/05/04 07:23:25;;;;;;;;;;;;;;;19.75;62.12;101288.75;7394903;19;1246;-50
2023/05/04 07:25:54;;;;;;;;;;;;;;;19.76;62.16;101293.16;7396815;19;1126;-50
2023/05/04 07:28:22;;;;;;;;;;;;;;;19.76;61.97;101307.41;7395090;19;1916;-50
2023/05/04 07:30:53;;;;;;;;;;;;;;;19.83;61.66;101295.16;7396433;19;1327;-50
2023/05/04 07:33:21;;;;;;;;;;;;;;;19.76;62.04;101291.31;7394481;19;1552;-50
2023/05/04 07:35:50;;;;;;;;;;;;;;;19.79;62.06;101290.19;7395834;19;1607;-50
2023/05/04 07:38:18;;;;;;;;;;;;;;;19.81;61.83;101288.25;7395484;19;1553;-50
2023/05/04 07:40:46;;;;;;;;;;;;;;;19.74;61.97;101304.00;7396076;19;1618;-50
2023/05/04 07:43:14;;;;;;;;;;;;;;;19.64;62.15;101297.66;7394840;19;1195;-50
2023/05/04 07:45:43;;;;;;;;;;;;;;;19.62;62.13;101291.59;7395752;19;1219;-50
2023/05/04 07:48:14;;;;;;;;;;;;;;;19.70;62.41;101294.47;7395511;19;1873;-50
2023/05/04 07:50:42;;;;;;;;;;;;;;;19.66;62.23;101299.25;7396036;19;1642;-52
2023/05/04 07:53:10;;;;;;;;;;;;;;;19.66;62.37;101301.06;7395676;19;1631;-52
2023/05/04 07:55:38;;;;;;;;;;;;;;;19.66;62.45;101303.75;7397297;19;1020;-52
2023/05/04 07:58:08;;;;;;;;;;;;;;;19.66;62.47;101291.19;7395660;19;1874;-52
2023/05/04 08:00:37;;;;;;;;;;;;;;;19.66;62.52;101314.50;7395909;19;1844;-52
2023/05/04 08:03:05;;;;;;;;;;;;;;;19.62;62.65;101305.00;7403365;19;1618;-52
2023/05/04 08:05:36;;;;;;;;;;;;;;;19.61;62.85;101304.13;7403241;19;1500;-49
2023/05/04 08:08:04;;;;;;;;;;;;;;;19.70;62.46;101301.69;7401892;19;2129;-50
2023/05/04 08:10:32;;;;;;;;;;;;;;;19.62;63.02;101313.03;7400492;19;1863;-50
2023/05/04 08:13:01;;;;;;;;;;;;;;;19.66;63.04;101319.88;7402858;19;1211;-49
2023/05/04 08:15:29;;;;;;;;;;;;;;;19.67;63.23;101295.56;7402114;19;1547;-50
2023/05/04 08:17:57;;;;;;;;;;;;;;;19.87;62.89;101311.88;7403077;19;1040;-54
2023/05/04 08:20:26;;;;;;;;;;;;;;;19.87;62.76;101319.94;7399904;19;1480;-49
2023/05/04 08:22:57;;;;;;;;;;;;;;;19.57;63.49;101296.47;7401521;19;1545;-49
2023/05/04 08:25:25;;;;;;;;;;;;;;;19.79;63.01;101301.78;7401657;19;1246;-50
2023/05/04 08:27:55;;;;;;;;;;;;;;;19.90;62.90;101308.94;7398979;19;1587;-50
2023/05/04 08:30:23;;;;;;;;;;;;;;;20.05;62.39;101290.69;7393545;19;1870;-50
2023/05/04 08:32:54;;;;;;;;;;;;;;;20.18;61.91;101306.63;7400038;19;1515;-49
2023/05/04 08:35:24;;;;;;;;;;;;;;;20.23;61.90;101307.06;7400930;19;1159;-49
2023/05/04 08:37:52;;;;;;;;;;;;;;;20.11;62.22;101300.91;7400049;19;1258;-49
2023/05/04 08:40:24;;;;;;;;;;;;;;;20.18;62.09;101301.25;7401303;19;1614;-50
2023/05/04 08:42:52;;;;;;;;;;;;;;;20.11;62.25;101287.47;7401367;19;1562;-49
2023/05/04 08:45:20;;;;;;;;;;;;;;;20.05;62.37;101296.06;7400878;19;1289;-49
2023/05/04 08:47:49;;;;;;;;;;;;;;;20.02;62.41;101290.97;7400958;19;1532;-49
2023/05/04 08:50:17;;;;;;;;;;;;;;;19.96;62.73;101280.75;7398622;19;1883;-49
2023/05/04 08:52:47;;;;;;;;;;;;;;;20.05;62.42;101293.38;7400380;19;1509;-49
2023/05/04 08:55:17;;;;;;;;;;;;;;;20.02;62.86;101280.22;7400847;19;1211;-54
2023/05/04 08:57:48;;;;;;;;;;;;;;;20.24;62.13;101272.03;7401029;19;1489;-49
2023/05/04 09:00:18;;;;;;;;;;;;;;;20.22;62.37;101271.31;7399600;19;1567;-49
2023/05/04 09:02:47;;;;;;;;;;;;;;;20.20;62.34;101262.53;7397750;19;1372;-49
2023/05/04 09:05:16;;;;;;;;;;;;;;;20.15;63.18;101263.91;7399269;19;1595;-49
2023/05/04 09:07:46;;;;;;;;;;;;;;;20.20;62.89;101254.50;7398714;19;1572;-47
2023/05/04 09:10:14;;;;;;;;;;;;;;;20.28;62.84;101248.47;7392885;19;1857;-54
2023/05/04 09:12:42;;;;;;;;;;;;;;;20.32;63.06;101270.53;7398708;19;1434;-54
2023/05/04 09:15:20;;;;;;;;;;;;;;;20.16;63.57;101250.38;7398682;19;1854;-53
2023/05/04 09:17:56;;;;;;;;;;;;;;;20.10;63.69;101256.25;7399155;19;1552;-54
2023/05/04 09:20:24;;;;;;;;;;;;;;;20.26;63.33;101245.91;7399364;19;1480;-54
2023/05/04 09:23:01;;;;;;;;;;;;;;;20.37;63.13;101246.81;7392500;19;1515;-55
2023/05/04 09:25:29;;;;;;;;;;;;;;;20.24;63.73;101252.41;7392786;19;1404;-51
2023/05/04 09:27:58;;;;;;;;;;;;;;;20.30;63.59;101251.03;7393103;19;1465;-51
2023/05/04 09:30:29;;;;;;;;;;;;;;;20.19;64.12;101250.13;7395070;19;1851;-51
2023/05/04 09:32:57;;;;;;;;;;;;;;;20.25;63.87;101227.22;7397650;19;1479;-51
2023/05/04 09:35:30;;;;;;;;;;;;;;;20.26;64.13;101234.31;7399677;19;1076;-51
2023/05/04 09:37:59;;;;;;;;;;;;;;;20.21;64.03;101242.78;7396409;19;1551;-51
2023/05/04 09:40:34;;;;;;;;;;;;;;;20.42;63.61;101241.91;7397376;19;1288;-51
2023/05/04 09:43:03;;;;;;;;;;;;;;;20.35;63.31;101233.53;7398613;19;1605;-51
2023/05/04 09:45:43;;;;;;;;;;;;;;;20.21;63.74;101229.34;7398810;19;1553;-51
2023/05/04 09:48:18;;;;;;;;;;;;;;;20.12;64.36;101240.88;7397643;19;1622;-51
2023/05/04 09:50:51;;;;;;;;;;;;;;;20.20;63.85;101229.47;7395350;19;1861;-51
2023/05/04 09:53:22;;;;;;;;;;;;;;;20.30;63.43;101219.63;7397940;19;1144;-51
2023/05/04 09:55:56;;;;;;;;;;;;;;;20.04;63.58;101178.94;7398337;19;1171;-51
2023/05/04 09:58:25;;;;;;;;;;;;;;;20.29;63.66;101217.06;7398814;19;1480;-50
2023/05/04 10:00:56;;;;;;;;;;;;;;;20.33;63.62;101218.50;7398175;19;1588;-50
2023/05/04 10:03:24;;;;;;;;;;;;;;;20.34;63.56;101225.59;7395678;19;1427;-49
2023/05/04 10:05:53;;;;;;;;;;;;;;;20.30;63.83;101213.41;7397513;19;1199;-49
2023/05/04 10:08:22;;;;;;;;;;;;;;;20.26;63.72;101215.50;7395960;19;1234;-49
2023/05/04 10:10:50;;;;;;;;;;;;;;;20.18;64.14;101210.81;7394626;19;1853;-50
2023/05/04 10:13:18;;;;;;;;;;;;;;;20.28;63.91;101216.22;7395350;19;1321;-50
2023/05/04 10:15:50;;;;;;;;;;;;;;;20.33;63.80;101211.28;7397790;19;1519;-50
2023/05/04 10:18:26;;;;;;;;;;;;;;;20.34;63.62;101213.00;7398033;19;1615;-49
2023/05/04 10:21:02;;;;;;;;;;;;;;;20.32;63.86;101206.09;7397589;19;1535;-50
2023/05/04 10:23:45;;;;;;;;;;;;;;;20.29;64.07;101191.06;7396060;19;1278;-50
2023/05/04 10:26:34;;;;;;;;;;;;;;;20.25;64.08;101186.94;7395836;19;1534;-49
2023/05/04 10:29:13;;;;;;;;;;;;;;;20.13;64.52;101188.84;7394552;19;1854;-50
2023/05/04 10:31:41;;;;;;;;;;;;;;;20.30;64.28;101197.31;7394273;19;1607;-50
2023/05/04 10:34:12;;;;;;;;;;;;;;;20.23;64.20;101192.47;7394974;19;1469;-49
2023/05/04 10:36:41;;;;;;;;;;;;;;;20.23;64.15;101178.16;7396989;19;1257;-50
2023/05/04 10:39:19;;;;;;;;;;;;;;;20.30;63.94;101181.19;7394326;19;1814;-49
2023/05/04 10:42:02;;;;;;;;;;;;;;;20.41;63.79;101183.75;7395943;19;1563;-50
2023/05/04 10:44:31;;;;;;;;;;;;;;;20.34;63.86;101185.31;7395270;19;1505;-50
2023/05/04 10:47:00;;;;;;;;;;;;;;;20.26;63.99;101186.81;7394366;19;1496;-49
2023/05/04 10:49:31;;;;;;;;;;;;;;;20.29;63.91;101187.53;7393238;19;1848;-50
2023/05/04 10:52:09;;;;;;;;;;;;;;;20.31;63.66;101183.72;7392276;19;1232;-50
2023/05/04 10:54:38;;;;;;;;;;;;;;;20.33;63.76;101170.16;7394488;19;1734;-50
2023/05/04 10:57:07;;;;;;;;;;;;;;;20.40;63.49;101163.28;7393708;19;1499;-49
2023/05/04 10:59:36;;;;;;;;;;;;;;;20.32;63.62;101179.22;7394933;19;1571;-50
2023/05/04 11:02:06;;;;;;;;;;;;;;;20.30;63.78;101167.75;7394269;19;1543;-50
2023/05/04 11:04:37;;;;;;;;;;;;;;;20.27;63.85;101171.53;7395513;19;1606;-50
2023/05/04 11:07:07;;;;;;;;;;;;;;;20.37;63.37;101172.47;7395772;19;1321;-49
2023/05/04 11:09:39;;;;;;;;;;;;;;;20.35;63.41;101174.44;7394831;19;1841;-50
2023/05/04 11:12:09;;;;;;;;;;;;;;;20.43;63.34;101161.19;7395087;19;1576;-49
2023/05/04 11:14:41;;;;;;;;;;;;;;;20.42;63.25;101172.06;7395204;19;1243;-50
2023/05/04 11:17:09;;;;;;;;;;;;;;;20.42;63.20;101169.38;7394049;19;1716;-50
2023/05/04 11:19:49;;;;;;;;;;;;;;;20.34;63.28;101166.50;7394892;19;1814;-49
2023/05/04 11:22:18;;;;;;;;;;;;;;;20.32;63.37;101163.09;7395556;19;1610;-49
2023/05/04 11:24:47;;;;;;;;;;;;;;;20.25;63.65;101160.97;7394055;19;1567;-49
2023/05/04 11:27:22;;;;;;;;;;;;;;;20.25;63.47;101154.72;7393899;19;1441;-49
2023/05/04 11:29:57;;;;;;;;;;;;;;;20.27;63.39;101167.03;7393913;19;1842;-50
2023/05/04 11:32:34;;;;;;;;;;;;;;;20.24;63.35;101151.19;7395005;19;1536;-50
2023/05/04 11:35:06;;;;;;;;;;;;;;;20.11;64.17;101161.28;7390180;19;1630;-54
2023/05/04 11:37:39;;;;;;;;;;;;;;;20.01;64.59;101155.03;7393904;19;1587;-54
2023/05/04 11:40:10;;;;;;;;;;;;;;;20.05;64.66;101161.81;7393195;19;1334;-54
2023/05/04 11:42:39;;;;;;;;;;;;;;;20.02;64.82;101151.38;7393122;19;1389;-54
2023/05/04 11:45:08;;;;;;;;;;;;;;;20.17;64.11;101149.16;7394728;19;1222;-54
2023/05/04 11:47:36;;;;;;;;;;;;;;;20.21;63.86;101148.78;7394095;19;1297;-54
2023/05/04 11:50:08;;;;;;;;;;;;;;;20.15;64.55;101141.25;7392885;19;1873;-54
2023/05/04 11:52:39;;;;;;;;;;;;;;;20.29;64.24;101158.00;7393917;19;1583;-54
2023/05/04 11:55:08;;;;;;;;;;;;;;;20.21;64.45;101146.09;7393103;19;1434;-54
2023/05/04 11:57:37;;;;;;;;;;;;;;;20.02;64.82;101156.75;7394881;19;1009;-54
2023/05/04 12:00:05;;;;;;;;;;;;;;;19.95;64.66;101144.81;7394022;19;1114;-54
2023/05/04 12:02:34;;;;;;;;;;;;;;;20.04;63.94;101171.72;7393367;19;1895;-54
2023/05/04 12:05:02;;;;;;;;;;;;;;;20.12;63.98;101146.06;7392808;19;1619;-54
2023/05/04 12:07:38;;;;;;;;;;;;;;;20.05;64.88;101146.59;7392635;19;1572;-54
2023/05/04 12:10:06;;;;;;;;;;;;;;;20.29;63.87;101152.63;7389921;19;1857;-54
2023/05/04 12:12:37;;;;;;;;;;;;;;;20.37;63.54;101142.03;7393702;19;1262;-54
2023/05/04 12:15:06;;;;;;;;;;;;;;;20.53;63.14;101144.22;7393127;19;1958;-54
2023/05/04 12:17:43;;;;;;;;;;;;;;;20.56;63.17;101144.81;7393348;19;1571;-53
2023/05/04 12:20:12;;;;;;;;;;;;;;;20.53;63.45;101128.97;6869121;19;9999638;-51
2023/05/04 12:22:43;;;;;;;;;;;;;;;20.42;63.73;101123.69;5846104;19;10000827;-49
2023/05/04 12:25:11;;;;;;;;;;;;;;;20.52;63.12;101135.31;7385309;19;1615;-50
2023/05/04 12:27:42;;;;;;;;;;;;;;;20.54;63.03;101125.28;7385589;19;1572;-50
2023/05/04 12:30:11;;;;;;;;;;;;;;;20.46;63.20;101120.59;7392214;19;2260;-50
2023/05/04 12:32:39;;;;;;;;;;;;;;;20.38;63.52;101133.03;7394685;19;1967;-50
2023/05/04 12:35:08;;;;;;;;;;;;;;;20.25;63.70;101128.75;7391546;19;1920;-50
2023/05/04 12:37:36;;;;;;;;;;;;;;;20.32;63.45;101126.34;7394316;19;1823;-50
2023/05/04 12:40:09;;;;;;;;;;;;;;;20.40;63.15;101126.50;7392107;19;1571;-49
2023/05/04 12:42:37;;;;;;;;;;;;;;;20.33;63.19;101129.88;7394232;19;1773;-50
2023/05/04 12:45:06;;;;;;;;;;;;;;;20.41;62.96;101124.66;7394030;19;1048;-49
2023/05/04 12:47:34;;;;;;;;;;;;;;;20.34;63.32;101120.84;7397982;19;1064;-49
2023/05/04 12:50:04;;;;;;;;;;;;;;;20.42;63.13;101121.00;7399398;19;1849;-52
2023/05/04 12:52:32;;;;;;;;;;;;;;;20.34;63.32;101116.31;7400834;19;1865;-50
2023/05/04 12:55:00;;;;;;;;;;;;;;;20.41;63.14;101124.66;7399626;19;1817;-50
2023/05/04 12:57:31;;;;;;;;;;;;;;;20.29;63.56;101120.38;7401043;19;1103;-50